This is the latest recevied weather packets stored in our database for station/object PY2KO-3. If no packets are shown the sender has not sent any weather packets the latest 10 day(s).
| Time | Temp. | Humidity | Pressure | Rain* | Wind** | Luminosity | Snow |
|---|---|---|---|---|---|---|---|
| 1777827863 | 17.78° C | 78% | 1024.7 hPa | - | - | - | - |
| 1777826950 | 17.78° C | 76% | 1024.6 hPa | - | - | - | - |
| 1777826050 | 17.78° C | 83% | 1024.9 hPa | - | - | - | - |
| 1777825150 | 18.33° C | 83% | 1024.8 hPa | - | - | - | - |
| 1777824259 | 17.78° C | 84% | 1025.1 hPa | - | - | - | - |
| 1777823350 | 17.78° C | 85% | 1025.3 hPa | - | - | - | - |
| 1777822450 | 17.78° C | 83% | 1025.3 hPa | - | - | - | - |
| 1777821557 | 18.33° C | 84% | 1025.4 hPa | - | - | - | - |
| 1777820650 | 17.78° C | 85% | 1025.9 hPa | - | - | - | - |
| 1777819753 | 17.22° C | 88% | 1026.2 hPa | - | - | - | - |
| 1777818851 | 18.33° C | 84% | 1025.9 hPa | - | - | - | - |
| 1777817950 | 18.89° C | 81% | 1025.7 hPa | - | - | - | - |
| 1777817050 | 18.33° C | 81% | 1025.9 hPa | - | - | - | - |
| 1777816150 | 17.78° C | 83% | 1026.4 hPa | - | - | - | - |
| 1777815250 | 17.78° C | 88% | 1026.5 hPa | - | - | - | - |
| 1777814350 | 17.78° C | 88% | 1026.4 hPa | - | - | - | - |
| 1777813450 | 18.89° C | 85% | 1026.1 hPa | - | - | - | - |
| 1777812550 | 18.89° C | 86% | 1025.9 hPa | - | - | - | - |
| 1777811650 | 18.33° C | 90% | 1026 hPa | - | - | - | - |
| 1777810750 | 18.33° C | 90% | 1025.9 hPa | - | - | - | - |
| 1777809850 | 18.33° C | 90% | 1025.5 hPa | - | - | - | - |
| 1777808950 | 18.33° C | 91% | 1025.3 hPa | - | - | - | - |
| 1777808050 | 18.33° C | 90% | 1024.9 hPa | - | - | - | - |
| 1777807150 | 18.33° C | 91% | 1024.8 hPa | - | - | - | - |
| 1777806250 | 18.33° C | 91% | 1024.5 hPa | - | - | - | - |
* Rain since midnight (hover to see other rain measurements)
** Current wind speed in m/s (hover to see current wind gust speed)